Hlavní strana
METAR-TAF:

METAR-TAF

Letiště :

Caracas, Venezuela

zeměpisná šířka: 10-36N, zeměpisná délka: 066-59W, výška: 43 m

Aktuální stav počasí

Zpráva byla vytvořena před 21 minutami, v 00:00 UTC
Severovýchodní vítr 2 kt
Teplota 25°C
Vlhkost vzduchu 94%
Tlak 1011 hPa
Viditelnost 10 km a více
Polojasno ve výšce 1600 ft

METAR: SVMI 180000Z 05002KT 9999 SCT016 25/24 Q1011

Čas: 20:21 (00:21 UTC)

Předpověď počasí

Zpráva byla vytvořena před 2 hodinami a 21 minutami, v 22:00 UTC
Předpověď platná od 18 v 00 UTC do 19 v 00 UTC
Severovýchodní vítr 10 kt
Viditelnost 10 km a více
Polojasno ve výšce 1600 ft
Změna
od 18 v 00 UTC do 18 v 04 UTC
Východní vítr 7 kt
Oblačno až skoro zataženo ve výšce 1600 ft

TAF: SVMI 172200Z 1800/1900 04010KT 9999 SCT016 TX32/19Z TN23/09Z BECMG 1800/1804 09007KT BKN016

Stav a předpovědi počasí z více než 4 000 letišť (zprávy METAR a TAF).

Červené a žluté tečky na mapě představují dostupné meteorologické stanice.

Když kurzor umístíte na tečku, zobrazí se název stanice.

Pak kliknutím zobrazíte stav a předpověď počasí.

Chcete-li změnit mapu, kliknutím na zelené tlačítko se znaménkem +mapu přiblížíte, kliknutím na zelené tlačítko se znaménkem – mapu oddálíte a kliknutím na zelené šipky přejdete na sousední mapy.


METAR-TAF: